sensor_id;sensor_type;location;lat;lon;timestamp;P1;durP1;ratioP1;P2;durP2;ratioP2
14890;SDS011;7537;48.014;11.590;2022-11-24T00:02:00;2.17;;;1.30;;
14890;SDS011;7537;48.014;11.590;2022-11-24T00:07:28;1.69;;;1.16;;
14890;SDS011;7537;48.014;11.590;2022-11-24T00:12:58;1.76;;;1.45;;
14890;SDS011;7537;48.014;11.590;2022-11-24T00:18:30;4.59;;;1.66;;
14890;SDS011;7537;48.014;11.590;2022-11-24T00:23:57;1.82;;;1.26;;
14890;SDS011;7537;48.014;11.590;2022-11-24T00:29:24;3.56;;;1.71;;
14890;SDS011;7537;48.014;11.590;2022-11-24T00:34:52;6.24;;;1.66;;
14890;SDS011;7537;48.014;11.590;2022-11-24T00:40:19;1.88;;;1.81;;
14890;SDS011;7537;48.014;11.590;2022-11-24T00:45:46;4.02;;;1.45;;
14890;SDS011;7537;48.014;11.590;2022-11-24T00:51:16;4.30;;;1.62;;
14890;SDS011;7537;48.014;11.590;2022-11-24T00:56:43;1.28;;;1.29;;
14890;SDS011;7537;48.014;11.590;2022-11-24T01:02:11;2.81;;;2.19;;
14890;SDS011;7537;48.014;11.590;2022-11-24T01:07:38;6.57;;;2.06;;
14890;SDS011;7537;48.014;11.590;2022-11-24T01:13:09;10.48;;;1.99;;
14890;SDS011;7537;48.014;11.590;2022-11-24T01:18:36;7.67;;;1.97;;
14890;SDS011;7537;48.014;11.590;2022-11-24T01:24:05;4.62;;;1.61;;
14890;SDS011;7537;48.014;11.590;2022-11-24T01:29:33;2.77;;;1.55;;
14890;SDS011;7537;48.014;11.590;2022-11-24T01:35:00;1.27;;;1.23;;
14890;SDS011;7537;48.014;11.590;2022-11-24T01:40:29;3.76;;;1.82;;
14890;SDS011;7537;48.014;11.590;2022-11-24T01:45:56;4.97;;;1.27;;
14890;SDS011;7537;48.014;11.590;2022-11-24T01:51:25;5.42;;;1.23;;
14890;SDS011;7537;48.014;11.590;2022-11-24T01:56:56;7.51;;;1.52;;
14890;SDS011;7537;48.014;11.590;2022-11-24T02:02:25;5.83;;;1.67;;
14890;SDS011;7537;48.014;11.590;2022-11-24T02:07:54;2.76;;;1.61;;
14890;SDS011;7537;48.014;11.590;2022-11-24T02:13:26;2.22;;;0.92;;
14890;SDS011;7537;48.014;11.590;2022-11-24T02:18:53;2.75;;;1.16;;
14890;SDS011;7537;48.014;11.590;2022-11-24T02:24:22;3.54;;;1.52;;
14890;SDS011;7537;48.014;11.590;2022-11-24T02:29:52;1.53;;;1.02;;
14890;SDS011;7537;48.014;11.590;2022-11-24T02:35:20;0.77;;;0.83;;
14890;SDS011;7537;48.014;11.590;2022-11-24T02:40:48;4.55;;;0.86;;
14890;SDS011;7537;48.014;11.590;2022-11-24T02:46:15;2.53;;;0.77;;
14890;SDS011;7537;48.014;11.590;2022-11-24T02:51:43;1.85;;;1.29;;
14890;SDS011;7537;48.014;11.590;2022-11-24T02:57:10;1.67;;;1.09;;
14890;SDS011;7537;48.014;11.590;2022-11-24T03:02:39;3.01;;;1.00;;
14890;SDS011;7537;48.014;11.590;2022-11-24T03:08:06;0.74;;;0.77;;
14890;SDS011;7537;48.014;11.590;2022-11-24T03:13:37;2.89;;;1.00;;
14890;SDS011;7537;48.014;11.590;2022-11-24T03:19:04;1.78;;;0.59;;
14890;SDS011;7537;48.014;11.590;2022-11-24T03:24:31;2.72;;;1.55;;
14890;SDS011;7537;48.014;11.590;2022-11-24T03:29:59;2.34;;;0.90;;
14890;SDS011;7537;48.014;11.590;2022-11-24T03:35:27;1.56;;;1.00;;
14890;SDS011;7537;48.014;11.590;2022-11-24T03:40:55;1.69;;;0.94;;
14890;SDS011;7537;48.014;11.590;2022-11-24T03:46:24;1.46;;;0.79;;
14890;SDS011;7537;48.014;11.590;2022-11-24T03:51:51;1.51;;;1.05;;
14890;SDS011;7537;48.014;11.590;2022-11-24T03:57:18;0.65;;;0.71;;
14890;SDS011;7537;48.014;11.590;2022-11-24T04:02:45;2.89;;;0.67;;
14890;SDS011;7537;48.014;11.590;2022-11-24T04:08:14;1.24;;;1.15;;
14890;SDS011;7537;48.014;11.590;2022-11-24T04:13:46;4.53;;;1.64;;
14890;SDS011;7537;48.014;11.590;2022-11-24T04:19:14;1.80;;;0.91;;
14890;SDS011;7537;48.014;11.590;2022-11-24T04:24:41;1.71;;;0.73;;
14890;SDS011;7537;48.014;11.590;2022-11-24T04:30:09;0.52;;;0.43;;
14890;SDS011;7537;48.014;11.590;2022-11-24T04:35:36;3.75;;;1.16;;
14890;SDS011;7537;48.014;11.590;2022-11-24T04:41:05;3.29;;;1.08;;
14890;SDS011;7537;48.014;11.590;2022-11-24T04:46:32;2.33;;;0.72;;
14890;SDS011;7537;48.014;11.590;2022-11-24T04:52:00;5.68;;;0.87;;
14890;SDS011;7537;48.014;11.590;2022-11-24T04:57:27;7.05;;;2.34;;
14890;SDS011;7537;48.014;11.590;2022-11-24T05:02:55;3.04;;;1.35;;
14890;SDS011;7537;48.014;11.590;2022-11-24T05:08:22;4.86;;;1.74;;
14890;SDS011;7537;48.014;11.590;2022-11-24T05:13:54;2.52;;;1.51;;
14890;SDS011;7537;48.014;11.590;2022-11-24T05:19:21;3.54;;;1.27;;
14890;SDS011;7537;48.014;11.590;2022-11-24T05:24:49;5.51;;;1.46;;
14890;SDS011;7537;48.014;11.590;2022-11-24T05:30:16;1.83;;;1.64;;
14890;SDS011;7537;48.014;11.590;2022-11-24T05:35:47;2.62;;;1.02;;
14890;SDS011;7537;48.014;11.590;2022-11-24T05:41:15;2.86;;;1.48;;
14890;SDS011;7537;48.014;11.590;2022-11-24T05:46:47;4.00;;;1.55;;
14890;SDS011;7537;48.014;11.590;2022-11-24T05:52:16;3.85;;;1.57;;
14890;SDS011;7537;48.014;11.590;2022-11-24T05:57:44;3.54;;;1.24;;
14890;SDS011;7537;48.014;11.590;2022-11-24T06:03:11;2.77;;;1.27;;
14890;SDS011;7537;48.014;11.590;2022-11-24T06:08:38;6.89;;;1.46;;
14890;SDS011;7537;48.014;11.590;2022-11-24T06:14:09;3.23;;;1.50;;
14890;SDS011;7537;48.014;11.590;2022-11-24T06:19:38;4.15;;;1.06;;
14890;SDS011;7537;48.014;11.590;2022-11-24T06:25:06;2.32;;;1.13;;
14890;SDS011;7537;48.014;11.590;2022-11-24T06:30:34;4.37;;;1.54;;
14890;SDS011;7537;48.014;11.590;2022-11-24T06:36:02;6.03;;;1.84;;
14890;SDS011;7537;48.014;11.590;2022-11-24T06:41:29;1.22;;;1.06;;
14890;SDS011;7537;48.014;11.590;2022-11-24T06:46:58;4.99;;;1.40;;
14890;SDS011;7537;48.014;11.590;2022-11-24T06:52:27;3.44;;;1.02;;
14890;SDS011;7537;48.014;11.590;2022-11-24T06:57:54;10.04;;;1.74;;
14890;SDS011;7537;48.014;11.590;2022-11-24T07:03:21;2.01;;;1.04;;
14890;SDS011;7537;48.014;11.590;2022-11-24T07:08:49;3.21;;;1.28;;
14890;SDS011;7537;48.014;11.590;2022-11-24T07:14:20;6.46;;;1.64;;
14890;SDS011;7537;48.014;11.590;2022-11-24T07:19:47;6.87;;;1.34;;
14890;SDS011;7537;48.014;11.590;2022-11-24T07:25:16;4.20;;;1.41;;
14890;SDS011;7537;48.014;11.590;2022-11-24T07:30:43;4.56;;;1.55;;
14890;SDS011;7537;48.014;11.590;2022-11-24T07:36:10;7.59;;;2.70;;
14890;SDS011;7537;48.014;11.590;2022-11-24T07:41:38;5.73;;;1.77;;
14890;SDS011;7537;48.014;11.590;2022-11-24T07:47:05;4.21;;;1.39;;
14890;SDS011;7537;48.014;11.590;2022-11-24T07:52:33;5.53;;;1.27;;
14890;SDS011;7537;48.014;11.590;2022-11-24T07:58:02;4.31;;;1.57;;
14890;SDS011;7537;48.014;11.590;2022-11-24T08:03:29;1.91;;;1.18;;
14890;SDS011;7537;48.014;11.590;2022-11-24T08:08:57;7.15;;;1.84;;
14890;SDS011;7537;48.014;11.590;2022-11-24T08:14:32;5.84;;;2.05;;
14890;SDS011;7537;48.014;11.590;2022-11-24T08:20:00;2.73;;;1.68;;
14890;SDS011;7537;48.014;11.590;2022-11-24T08:25:27;6.88;;;2.17;;
14890;SDS011;7537;48.014;11.590;2022-11-24T08:31:00;7.86;;;1.71;;
14890;SDS011;7537;48.014;11.590;2022-11-24T08:36:28;2.86;;;1.60;;
14890;SDS011;7537;48.014;11.590;2022-11-24T08:41:55;8.85;;;1.31;;
14890;SDS011;7537;48.014;11.590;2022-11-24T08:47:23;3.87;;;1.73;;
14890;SDS011;7537;48.014;11.590;2022-11-24T08:52:51;4.50;;;1.80;;
14890;SDS011;7537;48.014;11.590;2022-11-24T08:58:19;3.30;;;1.64;;
14890;SDS011;7537;48.014;11.590;2022-11-24T09:03:48;2.57;;;1.15;;
14890;SDS011;7537;48.014;11.590;2022-11-24T09:09:15;4.14;;;1.67;;
14890;SDS011;7537;48.014;11.590;2022-11-24T09:14:46;3.80;;;1.54;;
14890;SDS011;7537;48.014;11.590;2022-11-24T09:20:14;4.89;;;1.31;;
14890;SDS011;7537;48.014;11.590;2022-11-24T09:25:41;4.61;;;2.12;;
14890;SDS011;7537;48.014;11.590;2022-11-24T09:31:10;5.55;;;1.47;;
14890;SDS011;7537;48.014;11.590;2022-11-24T09:36:39;4.69;;;1.23;;
14890;SDS011;7537;48.014;11.590;2022-11-24T09:42:08;2.96;;;1.42;;
14890;SDS011;7537;48.014;11.590;2022-11-24T09:47:43;2.68;;;1.33;;
14890;SDS011;7537;48.014;11.590;2022-11-24T09:53:13;5.16;;;1.65;;
14890;SDS011;7537;48.014;11.590;2022-11-24T09:58:42;4.96;;;1.27;;
14890;SDS011;7537;48.014;11.590;2022-11-24T10:04:12;2.66;;;1.43;;
14890;SDS011;7537;48.014;11.590;2022-11-24T10:09:54;4.37;;;1.39;;
14890;SDS011;7537;48.014;11.590;2022-11-24T10:15:29;4.91;;;2.43;;
14890;SDS011;7537;48.014;11.590;2022-11-24T10:21:02;5.03;;;1.18;;
14890;SDS011;7537;48.014;11.590;2022-11-24T10:26:33;6.36;;;1.41;;
14890;SDS011;7537;48.014;11.590;2022-11-24T10:32:03;8.19;;;1.51;;
14890;SDS011;7537;48.014;11.590;2022-11-24T10:37:32;7.20;;;1.77;;
14890;SDS011;7537;48.014;11.590;2022-11-24T10:43:03;9.04;;;1.62;;
14890;SDS011;7537;48.014;11.590;2022-11-24T10:48:35;4.73;;;1.46;;
14890;SDS011;7537;48.014;11.590;2022-11-24T10:54:06;3.14;;;0.89;;
14890;SDS011;7537;48.014;11.590;2022-11-24T10:59:36;2.09;;;0.90;;
14890;SDS011;7537;48.014;11.590;2022-11-24T11:10:50;7.04;;;1.62;;
14890;SDS011;7537;48.014;11.590;2022-11-24T11:16:26;5.49;;;0.94;;
14890;SDS011;7537;48.014;11.590;2022-11-24T11:21:58;0.91;;;0.56;;
14890;SDS011;7537;48.014;11.590;2022-11-24T11:27:26;2.66;;;0.70;;
14890;SDS011;7537;48.014;11.590;2022-11-24T11:32:55;2.72;;;1.25;;
14890;SDS011;7537;48.014;11.590;2022-11-24T11:38:23;3.89;;;1.01;;
14890;SDS011;7537;48.014;11.590;2022-11-24T11:43:53;3.78;;;1.88;;
14890;SDS011;7537;48.014;11.590;2022-11-24T11:49:24;1.79;;;0.72;;
14890;SDS011;7537;48.014;11.590;2022-11-24T11:54:58;5.31;;;1.16;;
14890;SDS011;7537;48.014;11.590;2022-11-24T12:00:31;7.28;;;1.63;;
14890;SDS011;7537;48.014;11.590;2022-11-24T12:06:03;1.85;;;0.75;;
14890;SDS011;7537;48.014;11.590;2022-11-24T12:11:35;1.99;;;1.00;;
14890;SDS011;7537;48.014;11.590;2022-11-24T12:17:10;0.63;;;0.52;;
14890;SDS011;7537;48.014;11.590;2022-11-24T12:22:42;1.02;;;0.59;;
14890;SDS011;7537;48.014;11.590;2022-11-24T12:28:16;1.12;;;0.89;;
14890;SDS011;7537;48.014;11.590;2022-11-24T12:33:53;2.97;;;0.60;;
14890;SDS011;7537;48.014;11.590;2022-11-24T12:39:26;0.72;;;0.62;;
14890;SDS011;7537;48.014;11.590;2022-11-24T12:45:09;2.42;;;0.62;;
14890;SDS011;7537;48.014;11.590;2022-11-24T12:50:38;0.79;;;0.54;;
14890;SDS011;7537;48.014;11.590;2022-11-24T12:56:09;2.56;;;0.74;;
14890;SDS011;7537;48.014;11.590;2022-11-24T13:01:38;0.85;;;0.83;;
14890;SDS011;7537;48.014;11.590;2022-11-24T13:07:09;1.11;;;0.92;;
14890;SDS011;7537;48.014;11.590;2022-11-24T13:12:52;5.39;;;1.56;;
14890;SDS011;7537;48.014;11.590;2022-11-24T13:18:43;3.16;;;2.28;;
14890;SDS011;7537;48.014;11.590;2022-11-24T13:24:20;3.48;;;1.38;;
14890;SDS011;7537;48.014;11.590;2022-11-24T13:29:49;2.98;;;0.84;;
14890;SDS011;7537;48.014;11.590;2022-11-24T13:35:17;2.26;;;1.03;;
14890;SDS011;7537;48.014;11.590;2022-11-24T13:40:44;2.04;;;0.93;;
14890;SDS011;7537;48.014;11.590;2022-11-24T13:46:12;5.59;;;1.61;;
14890;SDS011;7537;48.014;11.590;2022-11-24T13:51:39;1.08;;;0.99;;
14890;SDS011;7537;48.014;11.590;2022-11-24T14:02:56;1.08;;;0.86;;
14890;SDS011;7537;48.014;11.590;2022-11-24T14:08:24;1.74;;;1.09;;
14890;SDS011;7537;48.014;11.590;2022-11-24T14:13:52;1.41;;;0.79;;
14890;SDS011;7537;48.014;11.590;2022-11-24T14:19:24;1.83;;;0.73;;
14890;SDS011;7537;48.014;11.590;2022-11-24T14:24:52;1.23;;;0.64;;
14890;SDS011;7537;48.014;11.590;2022-11-24T14:30:21;1.03;;;0.56;;
14890;SDS011;7537;48.014;11.590;2022-11-24T14:35:51;0.49;;;0.48;;
14890;SDS011;7537;48.014;11.590;2022-11-24T14:41:22;4.91;;;0.97;;
14890;SDS011;7537;48.014;11.590;2022-11-24T14:46:58;2.56;;;0.81;;
14890;SDS011;7537;48.014;11.590;2022-11-24T14:52:26;1.88;;;0.66;;
14890;SDS011;7537;48.014;11.590;2022-11-24T14:57:54;1.83;;;0.66;;
14890;SDS011;7537;48.014;11.590;2022-11-24T15:03:21;2.78;;;1.19;;
14890;SDS011;7537;48.014;11.590;2022-11-24T15:08:50;2.13;;;1.04;;
14890;SDS011;7537;48.014;11.590;2022-11-24T15:14:28;1.32;;;0.81;;
14890;SDS011;7537;48.014;11.590;2022-11-24T15:20:00;2.02;;;1.34;;
14890;SDS011;7537;48.014;11.590;2022-11-24T15:25:30;1.86;;;1.58;;
14890;SDS011;7537;48.014;11.590;2022-11-24T15:30:59;5.24;;;1.42;;
14890;SDS011;7537;48.014;11.590;2022-11-24T15:36:27;2.21;;;1.52;;
14890;SDS011;7537;48.014;11.590;2022-11-24T15:41:56;3.63;;;1.91;;
14890;SDS011;7537;48.014;11.590;2022-11-24T15:47:23;4.06;;;2.13;;
14890;SDS011;7537;48.014;11.590;2022-11-24T15:52:51;3.32;;;3.34;;
14890;SDS011;7537;48.014;11.590;2022-11-24T15:58:18;4.68;;;2.69;;
14890;SDS011;7537;48.014;11.590;2022-11-24T16:03:45;8.27;;;3.21;;
14890;SDS011;7537;48.014;11.590;2022-11-24T16:09:14;3.11;;;1.89;;
14890;SDS011;7537;48.014;11.590;2022-11-24T16:14:42;2.78;;;1.97;;
14890;SDS011;7537;48.014;11.590;2022-11-24T16:20:14;1.60;;;1.29;;
14890;SDS011;7537;48.014;11.590;2022-11-24T16:25:41;3.48;;;1.82;;
14890;SDS011;7537;48.014;11.590;2022-11-24T16:31:08;4.87;;;1.80;;
14890;SDS011;7537;48.014;11.590;2022-11-24T16:36:35;4.95;;;1.61;;
14890;SDS011;7537;48.014;11.590;2022-11-24T16:42:03;2.83;;;2.47;;
14890;SDS011;7537;48.014;11.590;2022-11-24T16:47:32;2.91;;;1.49;;
14890;SDS011;7537;48.014;11.590;2022-11-24T16:53:04;3.12;;;1.83;;
14890;SDS011;7537;48.014;11.590;2022-11-24T16:58:31;14.01;;;6.72;;
14890;SDS011;7537;48.014;11.590;2022-11-24T17:04:00;4.41;;;3.31;;
14890;SDS011;7537;48.014;11.590;2022-11-24T17:09:28;3.69;;;2.40;;
14890;SDS011;7537;48.014;11.590;2022-11-24T17:14:57;5.44;;;3.02;;
14890;SDS011;7537;48.014;11.590;2022-11-24T17:20:29;7.52;;;2.53;;
14890;SDS011;7537;48.014;11.590;2022-11-24T17:26:00;1.86;;;1.62;;
14890;SDS011;7537;48.014;11.590;2022-11-24T17:31:28;2.85;;;2.03;;
14890;SDS011;7537;48.014;11.590;2022-11-24T17:36:56;3.51;;;2.11;;
14890;SDS011;7537;48.014;11.590;2022-11-24T17:42:23;4.80;;;2.00;;
14890;SDS011;7537;48.014;11.590;2022-11-24T17:47:51;3.92;;;1.61;;
14890;SDS011;7537;48.014;11.590;2022-11-24T17:53:18;2.33;;;1.86;;
14890;SDS011;7537;48.014;11.590;2022-11-24T17:58:47;6.94;;;4.02;;
14890;SDS011;7537;48.014;11.590;2022-11-24T18:04:15;4.08;;;3.35;;
14890;SDS011;7537;48.014;11.590;2022-11-24T18:09:42;8.40;;;2.64;;
14890;SDS011;7537;48.014;11.590;2022-11-24T18:15:10;3.79;;;2.13;;
14890;SDS011;7537;48.014;11.590;2022-11-24T18:20:41;6.78;;;3.69;;
14890;SDS011;7537;48.014;11.590;2022-11-24T18:26:09;5.36;;;4.04;;
14890;SDS011;7537;48.014;11.590;2022-11-24T18:31:39;7.34;;;3.59;;
14890;SDS011;7537;48.014;11.590;2022-11-24T18:37:06;4.66;;;3.07;;
14890;SDS011;7537;48.014;11.590;2022-11-24T18:42:33;4.62;;;2.65;;
14890;SDS011;7537;48.014;11.590;2022-11-24T18:48:02;15.09;;;8.18;;
14890;SDS011;7537;48.014;11.590;2022-11-24T18:53:30;11.88;;;6.78;;
14890;SDS011;7537;48.014;11.590;2022-11-24T18:58:57;6.11;;;4.98;;
14890;SDS011;7537;48.014;11.590;2022-11-24T19:04:26;11.98;;;6.43;;
14890;SDS011;7537;48.014;11.590;2022-11-24T19:09:54;8.82;;;5.27;;
14890;SDS011;7537;48.014;11.590;2022-11-24T19:15:21;3.66;;;3.06;;
14890;SDS011;7537;48.014;11.590;2022-11-24T19:20:51;3.53;;;2.77;;
14890;SDS011;7537;48.014;11.590;2022-11-24T19:26:21;8.34;;;4.46;;
14890;SDS011;7537;48.014;11.590;2022-11-24T19:31:48;3.47;;;2.88;;
14890;SDS011;7537;48.014;11.590;2022-11-24T19:37:16;4.74;;;3.76;;
14890;SDS011;7537;48.014;11.590;2022-11-24T19:42:53;3.63;;;3.37;;
14890;SDS011;7537;48.014;11.590;2022-11-24T19:48:20;3.91;;;2.83;;
14890;SDS011;7537;48.014;11.590;2022-11-24T19:53:47;3.86;;;3.77;;
14890;SDS011;7537;48.014;11.590;2022-11-24T19:59:15;4.90;;;3.28;;
14890;SDS011;7537;48.014;11.590;2022-11-24T20:04:47;3.61;;;2.74;;
14890;SDS011;7537;48.014;11.590;2022-11-24T20:10:14;2.74;;;2.52;;
14890;SDS011;7537;48.014;11.590;2022-11-24T20:15:43;3.37;;;2.59;;
14890;SDS011;7537;48.014;11.590;2022-11-24T20:21:14;4.22;;;2.68;;
14890;SDS011;7537;48.014;11.590;2022-11-24T20:26:43;4.24;;;2.97;;
14890;SDS011;7537;48.014;11.590;2022-11-24T20:32:10;4.54;;;2.61;;
14890;SDS011;7537;48.014;11.590;2022-11-24T20:37:39;3.68;;;3.50;;
14890;SDS011;7537;48.014;11.590;2022-11-24T20:43:06;2.58;;;2.77;;
14890;SDS011;7537;48.014;11.590;2022-11-24T20:48:34;2.31;;;2.41;;
14890;SDS011;7537;48.014;11.590;2022-11-24T20:54:03;3.31;;;3.25;;
14890;SDS011;7537;48.014;11.590;2022-11-24T20:59:31;5.19;;;2.78;;
14890;SDS011;7537;48.014;11.590;2022-11-24T21:04:58;6.46;;;3.33;;
14890;SDS011;7537;48.014;11.590;2022-11-24T21:10:27;4.87;;;2.93;;
14890;SDS011;7537;48.014;11.590;2022-11-24T21:15:54;2.84;;;2.82;;
14890;SDS011;7537;48.014;11.590;2022-11-24T21:21:30;4.96;;;3.31;;
14890;SDS011;7537;48.014;11.590;2022-11-24T21:26:57;3.42;;;3.29;;
14890;SDS011;7537;48.014;11.590;2022-11-24T21:32:25;7.07;;;4.34;;
14890;SDS011;7537;48.014;11.590;2022-11-24T21:37:52;7.13;;;5.07;;
14890;SDS011;7537;48.014;11.590;2022-11-24T21:43:21;5.61;;;5.00;;
14890;SDS011;7537;48.014;11.590;2022-11-24T21:48:48;5.66;;;3.21;;
14890;SDS011;7537;48.014;11.590;2022-11-24T21:54:16;2.71;;;2.66;;
14890;SDS011;7537;48.014;11.590;2022-11-24T21:59:43;2.79;;;2.09;;
14890;SDS011;7537;48.014;11.590;2022-11-24T22:05:10;3.19;;;2.42;;
14890;SDS011;7537;48.014;11.590;2022-11-24T22:10:38;3.36;;;2.98;;
14890;SDS011;7537;48.014;11.590;2022-11-24T22:16:06;3.78;;;1.94;;
14890;SDS011;7537;48.014;11.590;2022-11-24T22:21:39;2.92;;;1.86;;
14890;SDS011;7537;48.014;11.590;2022-11-24T22:27:07;3.30;;;1.74;;
14890;SDS011;7537;48.014;11.590;2022-11-24T22:32:34;1.71;;;1.79;;
14890;SDS011;7537;48.014;11.590;2022-11-24T22:38:01;5.09;;;2.71;;
14890;SDS011;7537;48.014;11.590;2022-11-24T22:43:29;1.63;;;1.65;;
14890;SDS011;7537;48.014;11.590;2022-11-24T22:48:57;1.98;;;1.57;;
14890;SDS011;7537;48.014;11.590;2022-11-24T22:54:26;1.71;;;1.22;;
14890;SDS011;7537;48.014;11.590;2022-11-24T22:59:54;2.05;;;1.66;;
14890;SDS011;7537;48.014;11.590;2022-11-24T23:05:21;2.26;;;1.31;;
14890;SDS011;7537;48.014;11.590;2022-11-24T23:10:48;1.14;;;0.94;;
14890;SDS011;7537;48.014;11.590;2022-11-24T23:16:16;4.06;;;1.62;;
14890;SDS011;7537;48.014;11.590;2022-11-24T23:21:47;1.42;;;1.47;;
14890;SDS011;7537;48.014;11.590;2022-11-24T23:27:16;2.16;;;1.80;;
14890;SDS011;7537;48.014;11.590;2022-11-24T23:32:44;2.46;;;1.14;;
14890;SDS011;7537;48.014;11.590;2022-11-24T23:38:11;8.13;;;1.12;;
14890;SDS011;7537;48.014;11.590;2022-11-24T23:43:39;5.93;;;2.31;;
14890;SDS011;7537;48.014;11.590;2022-11-24T23:49:07;3.14;;;1.54;;
14890;SDS011;7537;48.014;11.590;2022-11-24T23:54:35;3.03;;;1.28;;
